Patsburg, Alabama
Current Conditions -  °F | °C
As of 9:53 PM on Sunday 23 Nov 2014 (Local Time) from KTOI Reporting Station
Overcast Overcast  
Wind Chill: 65°   Ceiling: 1400
Heat Index: 65°   Visibility: 10mi
Dew Point: 62°   Wind: 10mph
Humidity: 90%   Direction: 200°SSW
Pressure: 29.77"   Gusts: NA
Location:  31.6954°N, 86.2748°W
Report Text: KTOI 240353Z AUTO 20009KT 10SM OVC014 18/17 A2977 RMK AO2 SLP079 T01830167
Loading
Personal Weather Stations






























Interactive Weather Map New forecast layout! Learn more

10-Day Weather Forecast

Advertisements
Track Severe Weather on mobile